createdAt,value
2019-01-02T00:00:36.023Z,3.57
2019-01-02T00:03:05.641Z,4.03
2019-01-02T00:06:00.816Z,3.60
2019-01-02T00:08:30.563Z,3.93
2019-01-02T00:11:00.442Z,3.57
2019-01-02T00:13:30.089Z,3.73
2019-01-02T00:16:02.106Z,3.90
2019-01-02T00:18:31.556Z,3.40
2019-01-02T00:21:00.942Z,4.17
2019-01-02T00:23:30.756Z,3.87
2019-01-02T00:26:01.038Z,4.00
2019-01-02T00:28:30.622Z,3.60
2019-01-02T00:30:59.933Z,4.60
2019-01-02T00:33:29.293Z,4.10
2019-01-02T00:35:58.870Z,4.20
2019-01-02T00:38:28.175Z,4.10
2019-01-02T00:40:57.756Z,3.80
2019-01-02T00:43:27.392Z,4.30
2019-01-02T00:45:57.060Z,3.87
2019-01-02T00:48:26.468Z,4.47
2019-01-02T00:50:56.201Z,4.10
2019-01-02T00:53:25.745Z,3.83
2019-01-02T00:55:55.384Z,4.30
2019-01-02T00:58:24.659Z,4.17
2019-01-02T01:00:54.235Z,4.87
2019-01-02T01:03:23.591Z,4.00
2019-01-02T01:05:53.657Z,4.30
2019-01-02T01:08:22.996Z,4.00
2019-01-02T01:10:52.624Z,3.70
2019-01-02T01:13:21.914Z,4.40
2019-01-02T01:15:51.574Z,4.20
2019-01-02T01:18:22.202Z,4.53
2019-01-02T01:20:52.065Z,4.40
2019-01-02T01:23:21.441Z,3.90
2019-01-02T01:25:50.728Z,4.20
2019-01-02T01:28:20.000Z,4.10
2019-01-02T01:30:49.606Z,3.73
2019-01-02T01:33:19.749Z,4.30
2019-01-02T01:35:49.178Z,4.37
2019-01-02T01:38:18.484Z,3.97
2019-01-02T01:40:48.112Z,3.67
2019-01-02T01:43:17.569Z,3.87
2019-01-02T01:45:46.849Z,4.47
2019-01-02T01:48:16.174Z,3.53
2019-01-02T01:50:45.466Z,4.07
2019-01-02T01:53:15.664Z,3.97
2019-01-02T01:55:45.980Z,3.80
2019-01-02T01:58:15.300Z,3.90
2019-01-02T02:00:45.172Z,3.90
2019-01-02T02:03:14.560Z,3.80
2019-01-02T02:05:44.123Z,4.00
2019-01-02T02:08:13.401Z,3.97
2019-01-02T02:10:42.693Z,4.23
2019-01-02T02:13:12.433Z,3.90
2019-01-02T02:15:41.713Z,4.00
2019-01-02T02:18:11.960Z,4.53
2019-01-02T02:20:41.503Z,4.60
2019-01-02T02:23:11.061Z,4.30
2019-01-02T02:25:40.629Z,4.70
2019-01-02T02:28:12.806Z,4.73
2019-01-02T02:30:42.253Z,4.70
2019-01-02T02:33:11.737Z,4.67
2019-01-02T02:35:41.397Z,4.50
2019-01-02T02:38:11.092Z,4.27
2019-01-02T02:40:40.656Z,5.30
2019-01-02T02:43:09.970Z,4.60
2019-01-02T02:45:39.342Z,4.90
2019-01-02T02:48:09.060Z,4.50
2019-01-02T02:50:38.795Z,4.73
2019-01-02T02:53:08.273Z,4.20
2019-01-02T02:55:37.988Z,5.47
2019-01-02T02:58:07.954Z,4.40
2019-01-02T03:00:37.262Z,4.57
2019-01-02T03:03:06.936Z,4.83
2019-01-02T03:05:36.537Z,4.13
2019-01-02T03:08:06.070Z,3.87
2019-01-02T03:10:35.745Z,4.83
2019-01-02T03:13:05.421Z,4.50
2019-01-02T03:15:35.249Z,4.37
2019-01-02T03:18:05.004Z,4.30
2019-01-02T03:20:34.369Z,4.00
2019-01-02T03:23:03.653Z,4.07
2019-01-02T03:25:33.481Z,4.27
2019-01-02T03:28:03.286Z,3.73
2019-01-02T03:30:32.797Z,3.90
2019-01-02T03:33:02.480Z,3.27
2019-01-02T03:35:31.993Z,3.33
2019-01-02T03:38:01.697Z,4.13
2019-01-02T03:40:31.080Z,3.27
2019-01-02T03:43:00.653Z,2.93
2019-01-02T03:45:29.941Z,2.83
2019-01-02T03:47:59.732Z,2.50
2019-01-02T03:50:29.061Z,3.00
2019-01-02T03:52:58.370Z,2.93
2019-01-02T03:55:28.174Z,1.90
2019-01-02T03:57:57.742Z,2.23
2019-01-02T04:00:27.033Z,1.57
2019-01-02T04:02:56.700Z,1.80
2019-01-02T04:05:26.720Z,1.50
2019-01-02T04:08:01.251Z,1.67
2019-01-02T04:10:30.600Z,1.80
2019-01-02T04:12:59.897Z,2.10
2019-01-02T04:15:29.272Z,2.50
2019-01-02T04:17:58.689Z,2.40
2019-01-02T04:20:28.135Z,2.80
2019-01-02T04:22:57.589Z,2.43
2019-01-02T04:25:27.043Z,2.23
2019-01-02T04:27:56.350Z,2.50
2019-01-02T04:30:25.877Z,2.43
2019-01-02T04:32:55.233Z,2.83
2019-01-02T04:35:24.755Z,2.27
2019-01-02T04:37:54.407Z,2.50
2019-01-02T04:40:23.798Z,2.10
2019-01-02T04:42:53.113Z,2.23
2019-01-02T04:45:22.487Z,2.40
2019-01-02T04:47:51.914Z,2.23
2019-01-02T04:50:21.901Z,2.03
2019-01-02T04:52:51.208Z,2.37
2019-01-02T04:55:20.586Z,2.40
2019-01-02T04:57:49.891Z,2.80
2019-01-02T05:00:19.233Z,2.37
2019-01-02T05:02:51.677Z,2.27
2019-01-02T05:05:20.964Z,1.40
2019-01-02T05:07:50.259Z,1.73
2019-01-02T05:10:19.549Z,1.77
2019-01-02T05:12:48.981Z,1.40
2019-01-02T05:15:18.665Z,1.40
2019-01-02T05:17:48.097Z,1.67
2019-01-02T05:20:17.499Z,1.50
2019-01-02T05:22:47.082Z,1.73
2019-01-02T05:25:16.653Z,1.60
2019-01-02T05:27:47.315Z,1.57
2019-01-02T05:30:19.814Z,1.60
2019-01-02T05:32:49.093Z,1.57
2019-01-02T05:35:18.387Z,1.30
2019-01-02T05:37:47.849Z,1.27
2019-01-02T05:40:18.544Z,1.60
2019-01-02T05:42:48.416Z,1.23
2019-01-02T05:45:17.730Z,1.50
2019-01-02T05:47:49.605Z,1.50
2019-01-02T05:50:18.890Z,1.17
2019-01-02T05:52:48.450Z,2.53
2019-01-02T05:55:18.060Z,1.23
2019-01-02T05:57:47.585Z,1.93
2019-01-02T06:00:17.122Z,1.50
2019-01-02T06:02:46.439Z,1.37
2019-01-02T06:05:15.785Z,1.40
2019-01-02T06:07:45.202Z,1.47
2019-01-02T06:10:17.781Z,1.37
2019-01-02T06:12:47.128Z,1.27
2019-01-02T06:15:16.841Z,1.10
2019-01-02T06:17:46.837Z,1.37
2019-01-02T06:20:16.848Z,1.60
2019-01-02T06:22:46.228Z,1.10
2019-01-02T06:25:15.812Z,1.80
2019-01-02T06:27:45.196Z,1.70
2019-01-02T06:30:14.509Z,1.50
2019-01-02T06:32:43.948Z,2.27
2019-01-02T06:35:13.318Z,1.70
2019-01-02T06:37:42.634Z,1.57
2019-01-02T06:40:13.622Z,1.97
2019-01-02T06:42:43.089Z,1.43
2019-01-02T06:45:13.548Z,1.50
2019-01-02T06:47:42.836Z,2.60
2019-01-02T06:50:14.169Z,1.57
2019-01-02T06:52:44.560Z,1.50
2019-01-02T06:55:13.965Z,1.50
2019-01-02T06:57:43.274Z,1.50
2019-01-02T07:00:14.379Z,2.33
2019-01-02T07:02:44.154Z,1.47
2019-01-02T07:05:13.470Z,1.63
2019-01-02T07:07:42.748Z,1.93
2019-01-02T07:10:12.138Z,1.87
2019-01-02T07:12:45.022Z,1.90
2019-01-02T07:15:14.300Z,1.40
2019-01-02T07:17:43.885Z,1.87
2019-01-02T07:20:13.223Z,1.70
2019-01-02T07:22:42.522Z,1.30
2019-01-02T07:25:11.957Z,1.57
2019-01-02T07:27:41.259Z,1.70
2019-01-02T07:30:11.960Z,2.07
2019-01-02T07:32:41.281Z,1.50
2019-01-02T07:35:28.257Z,2.20
2019-01-02T07:38:19.723Z,1.67
2019-01-02T07:41:07.184Z,1.53
2019-01-02T07:43:54.461Z,1.90
2019-01-02T07:46:42.892Z,1.63
2019-01-02T08:03:03.203Z,1.83
2019-01-02T08:05:57.865Z,1.67
2019-01-02T08:18:54.060Z,1.43
2019-01-02T08:21:41.450Z,1.40
2019-01-02T08:28:03.308Z,1.83
2019-01-02T08:30:55.904Z,1.57
2019-01-02T08:33:29.212Z,1.43
2019-01-02T08:36:12.688Z,1.90
2019-01-02T08:38:52.162Z,1.63
2019-01-02T08:41:28.104Z,1.20
2019-01-02T08:44:04.337Z,3.30
2019-01-02T08:46:59.091Z,1.67
2019-01-02T08:49:50.648Z,1.93
2019-01-02T08:52:38.060Z,1.57
2019-01-02T08:55:28.478Z,1.47
2019-01-02T08:58:19.353Z,1.67
2019-01-02T09:01:07.854Z,1.30
2019-01-02T09:04:14.418Z,1.70
2019-01-02T09:06:46.875Z,1.50
2019-01-02T09:09:26.727Z,1.67
2019-01-02T09:12:21.016Z,1.43
2019-01-02T09:15:10.652Z,1.00
2019-01-02T09:17:53.448Z,1.70
2019-01-02T09:20:47.824Z,1.80
2019-01-02T09:23:36.512Z,1.90
2019-01-02T09:26:37.153Z,2.00
2019-01-02T09:29:20.463Z,1.60
2019-01-02T09:32:08.918Z,1.80
2019-01-02T09:34:50.018Z,1.90
2019-01-02T09:37:29.941Z,1.80
2019-01-02T09:40:30.795Z,1.90
2019-01-02T09:43:24.293Z,1.90
2019-01-02T09:46:10.637Z,1.70
2019-01-02T09:49:05.161Z,2.43
2019-01-02T09:52:11.821Z,2.00
2019-01-02T09:55:15.692Z,1.90
2019-01-02T09:58:02.995Z,1.63
2019-01-02T10:01:02.461Z,1.87
2019-01-02T10:03:51.220Z,2.00
2019-01-02T10:06:32.326Z,2.07
2019-01-02T10:09:14.834Z,1.77
2019-01-02T10:12:02.386Z,1.90
2019-01-02T10:14:57.891Z,1.87
2019-01-02T10:17:44.084Z,2.23
2019-01-02T10:20:31.556Z,2.00
2019-01-02T10:23:24.228Z,2.10
2019-01-02T10:26:01.733Z,2.53
2019-01-02T10:28:44.518Z,1.87
2019-01-02T10:31:32.929Z,2.03
2019-01-02T10:34:10.411Z,2.20
2019-01-02T10:37:05.049Z,1.90
2019-01-02T10:39:53.509Z,2.40
2019-01-02T10:42:44.752Z,2.00
2019-01-02T10:45:31.649Z,1.87
2019-01-02T10:48:03.786Z,2.47
2019-01-02T10:50:41.949Z,1.90
2019-01-02T10:53:29.164Z,2.37
2019-01-02T10:56:26.972Z,2.50
2019-01-02T10:59:00.484Z,1.83
2019-01-02T11:01:43.828Z,2.13
2019-01-02T11:04:30.944Z,2.10
2019-01-02T11:07:07.725Z,2.20
2019-01-02T11:09:55.061Z,1.87
2019-01-02T11:12:55.552Z,1.90
2019-01-02T11:15:34.623Z,2.80
2019-01-02T11:18:13.954Z,2.40
2019-01-02T11:20:56.885Z,2.13
2019-01-02T11:23:45.388Z,2.63
2019-01-02T11:26:25.777Z,2.07
2019-01-02T11:29:08.842Z,2.10
2019-01-02T11:31:55.928Z,1.90
2019-01-02T11:34:43.268Z,2.67
2019-01-02T11:37:40.862Z,2.77
2019-01-02T11:40:20.428Z,2.43
2019-01-02T11:43:12.888Z,1.70
2019-01-02T11:45:42.254Z,2.20
2019-01-02T11:48:11.539Z,2.30
2019-01-02T11:50:41.191Z,1.90
2019-01-02T11:53:10.505Z,2.20
2019-01-02T11:55:40.026Z,1.87
2019-01-02T11:58:09.314Z,2.90
2019-01-02T12:00:38.645Z,3.07
2019-01-02T12:03:07.933Z,2.00
2019-01-02T12:05:37.240Z,2.33
2019-01-02T12:08:06.605Z,2.03
2019-01-02T12:10:36.964Z,1.83
2019-01-02T12:13:07.135Z,1.70
2019-01-02T12:15:36.573Z,2.50
2019-01-02T12:18:05.849Z,1.70
2019-01-02T12:20:35.236Z,2.87
2019-01-02T12:23:04.502Z,2.10
2019-01-02T12:25:33.805Z,3.37
2019-01-02T12:28:03.069Z,2.33
2019-01-02T12:30:32.370Z,2.23
2019-01-02T12:33:01.755Z,2.27
2019-01-02T12:35:31.056Z,2.60
2019-01-02T12:38:00.424Z,2.00
2019-01-02T12:40:29.741Z,2.53
2019-01-02T12:42:59.076Z,2.40
2019-01-02T12:45:28.603Z,2.20
2019-01-02T12:47:57.969Z,2.33
2019-01-02T12:50:27.321Z,2.30
2019-01-02T12:52:56.605Z,2.47
2019-01-02T12:55:25.884Z,2.17
2019-01-02T12:57:55.172Z,2.60
2019-01-02T13:00:25.166Z,2.33
2019-01-02T13:03:00.053Z,2.10
2019-01-02T13:06:07.064Z,2.40
2019-01-02T13:08:57.877Z,2.27
2019-01-02T13:11:32.801Z,2.30
2019-01-02T13:14:33.106Z,2.40
2019-01-02T13:17:06.712Z,2.07
2019-01-02T13:19:58.201Z,3.10
2019-01-02T13:22:45.456Z,2.60
2019-01-02T13:25:19.080Z,2.40
2019-01-02T13:28:08.723Z,2.17
2019-01-02T13:30:44.698Z,2.93
2019-01-02T13:33:19.752Z,2.60
2019-01-02T13:36:14.363Z,2.43
2019-01-02T13:38:49.073Z,2.87
2019-01-02T13:41:27.528Z,2.40
2019-01-02T13:44:03.728Z,3.47
2019-01-02T13:46:38.269Z,2.63
2019-01-02T13:49:38.769Z,2.37
2019-01-02T13:52:08.078Z,2.57
2019-01-02T13:54:37.733Z,2.23
2019-01-02T13:57:07.089Z,2.40
2019-01-02T13:59:36.381Z,2.23
2019-01-02T14:02:05.701Z,2.17
2019-01-02T14:04:35.821Z,2.40
2019-01-02T14:07:05.234Z,2.80
2019-01-02T14:09:34.853Z,2.60
2019-01-02T14:12:04.249Z,2.60
2019-01-02T14:14:33.577Z,2.90
2019-01-02T14:17:02.922Z,2.50
2019-01-02T14:19:32.240Z,2.73
2019-01-02T14:22:01.662Z,2.90
2019-01-02T14:24:31.030Z,2.43
2019-01-02T14:27:00.333Z,2.00
2019-01-02T14:29:29.601Z,2.40
2019-01-02T14:31:58.932Z,2.80
2019-01-02T14:34:28.726Z,2.83
2019-01-02T14:36:58.062Z,2.50
2019-01-02T14:39:27.393Z,2.73
2019-01-02T14:41:56.677Z,2.90
2019-01-02T14:44:26.027Z,2.47
2019-01-02T14:46:55.510Z,2.97
2019-01-02T14:49:25.036Z,3.47
2019-01-02T14:51:54.304Z,2.80
2019-01-02T14:54:23.594Z,3.07
2019-01-02T14:56:53.199Z,2.90
2019-01-02T14:59:22.488Z,2.87
2019-01-02T15:01:52.110Z,2.80
2019-01-02T15:04:21.399Z,2.80
2019-01-02T15:06:50.716Z,2.87
2019-01-02T15:09:20.017Z,2.50
2019-01-02T15:11:49.549Z,3.13
2019-01-02T15:14:18.848Z,2.93
2019-01-02T15:16:48.191Z,3.77
2019-01-02T15:19:17.527Z,3.00
2019-01-02T15:21:47.671Z,2.30
2019-01-02T15:24:17.070Z,2.40
2019-01-02T15:26:46.384Z,4.00
2019-01-02T15:29:15.824Z,2.90
2019-01-02T15:31:45.148Z,2.53
2019-01-02T15:34:14.525Z,3.23
2019-01-02T15:36:43.913Z,3.03
2019-01-02T15:39:13.343Z,2.73
2019-01-02T15:41:42.637Z,2.83
2019-01-02T15:44:11.924Z,2.80
2019-01-02T15:46:41.213Z,3.30
2019-01-02T15:49:10.521Z,2.67
2019-01-02T15:51:39.823Z,2.63
2019-01-02T15:54:09.188Z,2.50
2019-01-02T15:56:39.588Z,2.67
2019-01-02T15:59:09.185Z,2.40
2019-01-02T16:01:38.515Z,2.90
2019-01-02T16:04:07.789Z,2.57
2019-01-02T16:06:37.088Z,3.47
2019-01-02T16:09:07.221Z,2.43
2019-01-02T16:11:36.493Z,2.00
2019-01-02T16:14:05.837Z,2.93
2019-01-02T16:16:35.130Z,3.10
2019-01-02T16:19:04.554Z,3.00
2019-01-02T16:21:33.863Z,2.73
2019-01-02T16:24:03.616Z,2.57
2019-01-02T16:26:32.889Z,3.03
2019-01-02T16:29:02.209Z,2.47
2019-01-02T16:31:31.482Z,2.13
2019-01-02T16:34:00.886Z,3.10
2019-01-02T16:36:30.157Z,2.17
2019-01-02T16:38:59.488Z,2.07
2019-01-02T16:41:28.778Z,2.80
2019-01-02T16:43:58.329Z,2.67
2019-01-02T16:46:27.628Z,2.60
2019-01-02T16:48:56.936Z,2.00
2019-01-02T16:51:26.279Z,2.50
2019-01-02T16:53:55.578Z,2.37
2019-01-02T16:56:25.601Z,2.80
2019-01-02T16:58:55.800Z,2.70
2019-01-02T17:01:25.204Z,3.00
2019-01-02T17:03:54.557Z,2.37
2019-01-02T17:06:23.908Z,3.47
2019-01-02T17:08:53.181Z,3.33
2019-01-02T17:11:22.901Z,3.17
2019-01-02T17:13:52.215Z,2.37
2019-01-02T17:23:46.360Z,2.60
2019-01-02T17:26:16.201Z,2.57
2019-01-02T17:28:45.592Z,2.60
2019-01-02T17:31:15.089Z,3.50
2019-01-02T17:33:44.464Z,4.40
2019-01-02T17:36:13.788Z,3.93
2019-01-02T17:38:43.169Z,3.90
2019-01-02T17:41:12.559Z,4.40
2019-01-02T17:43:42.021Z,3.63
2019-01-02T17:46:11.434Z,3.33
2019-01-02T17:48:40.755Z,4.00
2019-01-02T17:51:10.118Z,3.77
2019-01-02T17:53:39.453Z,3.80
2019-01-02T17:56:09.273Z,3.60
2019-01-02T17:58:38.889Z,3.47
2019-01-02T18:01:08.292Z,3.67
2019-01-02T18:03:37.789Z,3.37
2019-01-02T18:06:11.005Z,3.17
2019-01-02T18:08:38.060Z,3.20
2019-01-02T18:11:07.386Z,3.22
2019-01-02T18:13:36.768Z,3.33
2019-01-02T18:16:06.215Z,3.40
2019-01-02T18:18:36.689Z,3.00
2019-01-02T18:21:05.997Z,3.70
2019-01-02T18:23:35.377Z,3.70
2019-01-02T18:26:05.812Z,4.25
2019-01-02T18:28:35.181Z,4.58
2019-01-02T18:31:04.928Z,3.90
2019-01-02T18:33:34.221Z,3.90
2019-01-02T18:36:09.581Z,4.17
2019-01-02T18:39:07.700Z,3.65
2019-01-02T18:41:37.143Z,4.05
2019-01-02T18:44:07.551Z,4.37
2019-01-02T18:46:37.043Z,3.80
2019-01-02T18:49:10.158Z,4.17
2019-01-02T18:51:39.580Z,3.30
2019-01-02T18:54:08.969Z,3.63
2019-01-02T18:56:49.836Z,4.17
2019-01-02T18:59:29.395Z,3.67
2019-01-02T19:01:58.908Z,3.70
2019-01-02T19:04:28.421Z,4.63
2019-01-02T19:06:58.207Z,4.50
2019-01-02T19:09:27.682Z,5.17
2019-01-02T19:11:57.145Z,4.40
2019-01-02T19:14:27.589Z,4.70
2019-01-02T19:16:57.133Z,2.50
2019-01-02T19:19:26.412Z,2.43
2019-01-02T19:21:56.059Z,2.30
2019-01-02T19:24:25.408Z,2.20
2019-01-02T19:27:19.595Z,2.20
2019-01-02T19:29:49.017Z,2.20
2019-01-02T19:32:18.320Z,2.30
2019-01-02T19:34:47.618Z,4.90
2019-01-02T19:37:17.088Z,2.42
2019-01-02T19:39:46.425Z,2.77
2019-01-02T19:42:16.153Z,2.62
2019-01-02T19:44:50.288Z,2.70
2019-01-02T19:47:20.353Z,3.25
2019-01-02T19:49:58.729Z,2.95
2019-01-02T19:52:28.749Z,3.07
2019-01-02T19:56:40.748Z,3.60
2019-01-02T19:59:10.182Z,3.52
2019-01-02T20:01:39.542Z,3.40
2019-01-02T20:05:35.928Z,3.53
2019-01-02T20:08:05.726Z,3.17
2019-01-02T20:10:35.481Z,2.98
2019-01-02T20:13:05.568Z,3.30
2019-01-02T20:15:35.245Z,4.83
2019-01-02T20:18:05.012Z,4.80
2019-01-02T20:20:34.706Z,4.30
2019-01-02T20:23:04.502Z,4.77
2019-01-02T20:25:34.293Z,4.60
2019-01-02T20:28:04.028Z,4.33
2019-01-02T20:30:33.869Z,4.08
2019-01-02T20:33:03.636Z,4.05
2019-01-02T20:35:33.451Z,3.60
2019-01-02T20:38:03.159Z,3.50
2019-01-02T20:40:33.096Z,3.87
2019-01-02T20:43:02.809Z,3.70
2019-01-02T20:45:32.769Z,3.52
2019-01-02T20:48:02.540Z,3.23
2019-01-02T20:50:32.638Z,3.70
2019-01-02T20:54:58.495Z,3.37
2019-01-02T20:57:29.509Z,3.60
2019-01-02T21:00:00.811Z,3.27
2019-01-02T21:02:31.278Z,3.50
2019-01-02T21:05:01.844Z,3.33
2019-01-02T21:07:32.365Z,3.50
2019-01-02T21:10:02.918Z,3.37
2019-01-02T21:12:33.457Z,3.40
2019-01-02T21:15:04.071Z,3.40
2019-01-02T21:17:34.849Z,3.50
2019-01-02T21:20:05.867Z,3.90
2019-01-02T21:22:36.363Z,4.87
2019-01-02T21:25:07.278Z,4.85
2019-01-02T21:27:38.044Z,4.95
2019-01-02T21:30:09.607Z,4.58
2019-01-02T21:32:40.119Z,4.70
2019-01-02T21:35:10.802Z,4.95
2019-01-02T21:37:41.319Z,5.33
2019-01-02T21:40:31.089Z,4.92
2019-01-02T21:43:01.592Z,5.60
2019-01-02T21:45:32.057Z,5.70
2019-01-02T21:48:02.565Z,5.90
2019-01-02T21:50:33.124Z,5.73
2019-01-02T21:53:03.617Z,5.40
2019-01-02T21:55:34.076Z,5.30
2019-01-02T21:58:04.578Z,5.37
2019-01-02T22:00:37.174Z,5.20
2019-01-02T22:03:08.861Z,5.08
2019-01-02T22:05:43.677Z,5.17
2019-01-02T22:08:14.413Z,5.07
2019-01-02T22:10:44.896Z,4.83
2019-01-02T22:13:15.381Z,4.90
2019-01-02T22:15:46.149Z,5.50
2019-01-02T22:18:16.612Z,5.37
2019-01-02T22:20:47.096Z,5.50
2019-01-02T22:23:17.910Z,5.25
2019-01-02T22:25:48.886Z,5.23
2019-01-02T22:28:19.416Z,5.40
2019-01-02T22:30:49.871Z,5.65
2019-01-02T22:33:20.865Z,5.43
2019-01-02T22:35:51.416Z,5.17
2019-01-02T22:38:21.923Z,4.70
2019-01-02T22:40:52.492Z,5.50
2019-01-02T22:43:23.024Z,4.87
2019-01-02T22:45:53.461Z,6.80
2019-01-02T22:48:24.106Z,6.03
2019-01-02T22:50:54.592Z,5.62
2019-01-02T22:53:25.361Z,4.70
2019-01-02T22:55:55.826Z,5.10
2019-01-02T22:58:26.351Z,5.20
2019-01-02T23:01:07.707Z,4.55
2019-01-02T23:04:03.460Z,5.10
2019-01-02T23:06:58.874Z,4.70
2019-01-02T23:09:47.249Z,4.90
2019-01-02T23:12:42.533Z,4.50
2019-01-02T23:15:31.174Z,5.05
2019-01-02T23:18:20.678Z,5.00
2019-01-02T23:21:13.474Z,4.75
2019-01-02T23:24:06.161Z,4.67
2019-01-02T23:26:54.427Z,4.72
2019-01-02T23:29:59.137Z,4.40
2019-01-02T23:32:48.812Z,4.58
2019-01-02T23:35:38.377Z,4.33
2019-01-02T23:38:26.038Z,4.95
2019-01-02T23:41:21.614Z,4.53
2019-01-02T23:44:11.282Z,4.93
2019-01-02T23:47:00.873Z,4.42
2019-01-02T23:49:56.587Z,5.30
2019-01-02T23:52:56.604Z,4.80
2019-01-02T23:55:46.393Z,4.73
2019-01-02T23:58:48.119Z,4.93
